sensor_id;sensor_type;location;lat;lon;timestamp;pressure;altitude;pressure_sealevel;temperature;humidity
77662;BME280;69666;52.136;5.424;2023-07-31T00:00:59;101100.47;;;16.46;100.00
77662;BME280;69666;52.136;5.424;2023-07-31T00:03:28;101093.28;;;16.47;100.00
77662;BME280;69666;52.136;5.424;2023-07-31T00:05:57;101088.69;;;16.49;100.00
77662;BME280;69666;52.136;5.424;2023-07-31T00:08:27;101090.59;;;16.47;100.00
77662;BME280;69666;52.136;5.424;2023-07-31T00:10:56;101072.72;;;16.46;100.00
77662;BME280;69666;52.136;5.424;2023-07-31T00:13:25;101070.91;;;16.46;100.00
77662;BME280;69666;52.136;5.424;2023-07-31T00:15:55;101057.31;;;16.49;100.00
77662;BME280;69666;52.136;5.424;2023-07-31T00:18:24;101051.00;;;16.50;100.00
77662;BME280;69666;52.136;5.424;2023-07-31T00:20:53;101040.09;;;16.53;100.00
77662;BME280;69666;52.136;5.424;2023-07-31T00:23:22;101049.78;;;16.56;100.00
77662;BME280;69666;52.136;5.424;2023-07-31T00:25:51;101049.63;;;16.59;100.00
77662;BME280;69666;52.136;5.424;2023-07-31T00:28:21;101046.94;;;16.59;100.00
77662;BME280;69666;52.136;5.424;2023-07-31T00:30:50;101050.34;;;16.62;100.00
77662;BME280;69666;52.136;5.424;2023-07-31T00:33:19;101059.31;;;16.61;100.00
77662;BME280;69666;52.136;5.424;2023-07-31T00:35:49;101052.09;;;16.63;100.00
77662;BME280;69666;52.136;5.424;2023-07-31T00:38:19;101047.50;;;16.65;100.00
77662;BME280;69666;52.136;5.424;2023-07-31T00:40:48;101042.97;;;16.66;100.00
77662;BME280;69666;52.136;5.424;2023-07-31T00:43:17;101047.31;;;16.68;100.00
77662;BME280;69666;52.136;5.424;2023-07-31T00:45:46;101036.56;;;16.68;100.00
77662;BME280;69666;52.136;5.424;2023-07-31T00:48:16;101034.66;;;16.70;100.00
77662;BME280;69666;52.136;5.424;2023-07-31T00:50:45;101030.84;;;16.74;100.00
77662;BME280;69666;52.136;5.424;2023-07-31T00:53:15;101028.91;;;16.76;100.00
77662;BME280;69666;52.136;5.424;2023-07-31T00:55:45;101034.13;;;16.79;100.00
77662;BME280;69666;52.136;5.424;2023-07-31T00:58:14;101034.84;;;16.83;100.00
77662;BME280;69666;52.136;5.424;2023-07-31T01:00:43;101034.47;;;16.89;100.00
77662;BME280;69666;52.136;5.424;2023-07-31T01:03:12;101032.56;;;16.91;100.00
77662;BME280;69666;52.136;5.424;2023-07-31T01:11:53;101027.28;;;17.05;100.00
77662;BME280;69666;52.136;5.424;2023-07-31T01:14:24;101020.00;;;17.07;100.00
77662;BME280;69666;52.136;5.424;2023-07-31T01:16:54;101035.06;;;17.10;100.00
77662;BME280;69666;52.136;5.424;2023-07-31T01:19:25;101034.97;;;17.11;100.00
77662;BME280;69666;52.136;5.424;2023-07-31T01:25:15;101026.91;;;17.11;100.00
77662;BME280;69666;52.136;5.424;2023-07-31T01:28:08;101034.31;;;17.08;100.00
77662;BME280;69666;52.136;5.424;2023-07-31T01:30:44;101031.69;;;17.06;100.00
77662;BME280;69666;52.136;5.424;2023-07-31T01:33:17;101029.97;;;17.05;100.00
77662;BME280;69666;52.136;5.424;2023-07-31T01:35:49;101021.81;;;17.07;100.00
77662;BME280;69666;52.136;5.424;2023-07-31T01:38:21;101029.88;;;17.07;100.00
77662;BME280;69666;52.136;5.424;2023-07-31T01:40:53;101032.56;;;17.07;100.00
77662;BME280;69666;52.136;5.424;2023-07-31T01:43:26;101026.22;;;17.08;100.00
77662;BME280;69666;52.136;5.424;2023-07-31T01:45:56;101028.94;;;17.08;100.00
77662;BME280;69666;52.136;5.424;2023-07-31T01:48:25;101028.06;;;17.07;100.00
77662;BME280;69666;52.136;5.424;2023-07-31T01:50:54;101024.41;;;17.08;100.00
77662;BME280;69666;52.136;5.424;2023-07-31T01:53:24;101017.09;;;17.10;100.00
77662;BME280;69666;52.136;5.424;2023-07-31T01:55:53;101011.63;;;17.12;100.00
77662;BME280;69666;52.136;5.424;2023-07-31T01:58:22;101017.00;;;17.12;100.00
77662;BME280;69666;52.136;5.424;2023-07-31T02:00:51;101008.00;;;17.13;100.00
77662;BME280;69666;52.136;5.424;2023-07-31T02:03:21;101010.59;;;17.14;100.00
77662;BME280;69666;52.136;5.424;2023-07-31T02:05:54;101010.59;;;17.14;100.00
77662;BME280;69666;52.136;5.424;2023-07-31T02:08:25;101002.53;;;17.14;100.00
77662;BME280;69666;52.136;5.424;2023-07-31T02:10:55;101003.41;;;17.15;100.00
77662;BME280;69666;52.136;5.424;2023-07-31T02:13:24;100996.28;;;17.14;100.00
77662;BME280;69666;52.136;5.424;2023-07-31T02:15:53;100994.47;;;17.14;100.00
77662;BME280;69666;52.136;5.424;2023-07-31T02:18:22;100999.06;;;17.12;100.00
77662;BME280;69666;52.136;5.424;2023-07-31T02:20:52;100983.88;;;17.11;100.00
77662;BME280;69666;52.136;5.424;2023-07-31T02:23:22;100976.75;;;17.10;100.00
77662;BME280;69666;52.136;5.424;2023-07-31T02:25:51;100975.03;;;17.09;100.00
77662;BME280;69666;52.136;5.424;2023-07-31T02:28:20;100981.47;;;17.07;100.00
77662;BME280;69666;52.136;5.424;2023-07-31T02:30:50;100985.13;;;17.06;100.00
77662;BME280;69666;52.136;5.424;2023-07-31T02:33:20;100976.19;;;17.05;100.00
77662;BME280;69666;52.136;5.424;2023-07-31T02:35:49;100971.66;;;17.06;100.00
77662;BME280;69666;52.136;5.424;2023-07-31T02:38:18;100970.81;;;17.05;100.00
77662;BME280;69666;52.136;5.424;2023-07-31T02:40:48;100972.53;;;17.06;100.00
77662;BME280;69666;52.136;5.424;2023-07-31T02:43:17;100970.88;;;17.04;100.00
77662;BME280;69666;52.136;5.424;2023-07-31T02:45:51;100977.22;;;17.03;100.00
77662;BME280;69666;52.136;5.424;2023-07-31T02:48:21;100981.66;;;17.04;100.00
77662;BME280;69666;52.136;5.424;2023-07-31T02:50:50;100978.00;;;17.05;100.00
77662;BME280;69666;52.136;5.424;2023-07-31T02:53:19;100966.38;;;17.04;100.00
77662;BME280;69666;52.136;5.424;2023-07-31T02:55:49;100962.81;;;17.04;100.00
77662;BME280;69666;52.136;5.424;2023-07-31T02:58:19;100959.19;;;17.05;100.00
77662;BME280;69666;52.136;5.424;2023-07-31T03:00:48;100953.81;;;17.05;100.00
77662;BME280;69666;52.136;5.424;2023-07-31T03:03:17;100953.81;;;17.05;100.00
77662;BME280;69666;52.136;5.424;2023-07-31T03:05:46;100956.50;;;17.05;100.00
77662;BME280;69666;52.136;5.424;2023-07-31T03:08:16;100960.13;;;17.04;100.00
77662;BME280;69666;52.136;5.424;2023-07-31T03:10:45;100954.84;;;17.02;100.00
77662;BME280;69666;52.136;5.424;2023-07-31T03:13:14;100959.19;;;17.05;100.00
77662;BME280;69666;52.136;5.424;2023-07-31T03:15:43;100955.53;;;17.06;100.00
77662;BME280;69666;52.136;5.424;2023-07-31T03:18:12;100963.59;;;17.06;100.00
77662;BME280;69666;52.136;5.424;2023-07-31T03:20:43;100961.88;;;17.05;100.00
77662;BME280;69666;52.136;5.424;2023-07-31T03:23:12;100960.13;;;17.04;100.00
77662;BME280;69666;52.136;5.424;2023-07-31T03:25:56;100955.72;;;17.03;100.00
77662;BME280;69666;52.136;5.424;2023-07-31T03:28:29;100949.47;;;17.02;100.00
77662;BME280;69666;52.136;5.424;2023-07-31T03:30:58;100947.72;;;17.01;100.00
77662;BME280;69666;52.136;5.424;2023-07-31T03:33:28;100945.03;;;17.01;100.00
77662;BME280;69666;52.136;5.424;2023-07-31T03:35:57;100955.78;;;17.01;100.00
77662;BME280;69666;52.136;5.424;2023-07-31T03:38:27;100948.78;;;16.99;100.00
77662;BME280;69666;52.136;5.424;2023-07-31T03:40:56;100948.78;;;16.99;100.00
77662;BME280;69666;52.136;5.424;2023-07-31T03:43:27;100954.16;;;16.99;100.00
77662;BME280;69666;52.136;5.424;2023-07-31T03:45:56;100955.13;;;16.98;100.00
77662;BME280;69666;52.136;5.424;2023-07-31T03:48:25;100948.78;;;16.99;100.00
77662;BME280;69666;52.136;5.424;2023-07-31T03:50:55;100951.56;;;16.97;100.00
77662;BME280;69666;52.136;5.424;2023-07-31T03:53:24;100955.22;;;16.96;100.00
77662;BME280;69666;52.136;5.424;2023-07-31T03:55:53;100952.63;;;16.95;100.00
77662;BME280;69666;52.136;5.424;2023-07-31T03:58:22;100948.28;;;16.92;100.00
77662;BME280;69666;52.136;5.424;2023-07-31T04:00:52;100949.22;;;16.91;100.00
77662;BME280;69666;52.136;5.424;2023-07-31T04:03:21;100943.84;;;16.91;100.00
77662;BME280;69666;52.136;5.424;2023-07-31T04:05:50;100942.13;;;16.90;100.00
77662;BME280;69666;52.136;5.424;2023-07-31T04:08:19;100940.47;;;16.88;100.00
77662;BME280;69666;52.136;5.424;2023-07-31T04:10:49;100935.97;;;16.88;100.00
77662;BME280;69666;52.136;5.424;2023-07-31T04:13:18;100924.53;;;16.85;100.00
77662;BME280;69666;52.136;5.424;2023-07-31T04:15:50;100921.94;;;16.83;100.00
77662;BME280;69666;52.136;5.424;2023-07-31T04:18:20;100916.66;;;16.82;100.00
77662;BME280;69666;52.136;5.424;2023-07-31T04:20:49;100905.97;;;16.80;100.00
77662;BME280;69666;52.136;5.424;2023-07-31T04:23:18;100907.03;;;16.77;100.00
77662;BME280;69666;52.136;5.424;2023-07-31T04:25:48;100900.03;;;16.75;100.00
77662;BME280;69666;52.136;5.424;2023-07-31T04:28:17;100900.97;;;16.74;100.00
77662;BME280;69666;52.136;5.424;2023-07-31T04:30:47;100904.63;;;16.73;100.00
77662;BME280;69666;52.136;5.424;2023-07-31T04:33:17;100907.41;;;16.71;100.00
77662;BME280;69666;52.136;5.424;2023-07-31T04:35:54;100911.03;;;16.70;100.00
77662;BME280;69666;52.136;5.424;2023-07-31T04:38:23;100905.75;;;16.69;100.00
77662;BME280;69666;52.136;5.424;2023-07-31T04:40:53;100912.00;;;16.69;100.00
77662;BME280;69666;52.136;5.424;2023-07-31T04:43:22;100922.81;;;16.68;100.00
77662;BME280;69666;52.136;5.424;2023-07-31T04:45:51;100918.31;;;16.68;100.00
77662;BME280;69666;52.136;5.424;2023-07-31T04:48:21;100909.38;;;16.68;100.00
77662;BME280;69666;52.136;5.424;2023-07-31T04:50:51;100913.03;;;16.67;100.00
77662;BME280;69666;52.136;5.424;2023-07-31T04:53:20;100910.34;;;16.67;100.00
77662;BME280;69666;52.136;5.424;2023-07-31T04:55:49;100904.09;;;16.66;100.00
77662;BME280;69666;52.136;5.424;2023-07-31T04:58:19;100908.59;;;16.66;100.00
77662;BME280;69666;52.136;5.424;2023-07-31T05:00:48;100899.72;;;16.65;100.00
77662;BME280;69666;52.136;5.424;2023-07-31T05:03:17;100894.22;;;16.67;100.00
77662;BME280;69666;52.136;5.424;2023-07-31T05:05:47;100881.72;;;16.66;100.00
77662;BME280;69666;52.136;5.424;2023-07-31T05:08:16;100879.91;;;16.66;100.00
77662;BME280;69666;52.136;5.424;2023-07-31T05:10:46;100880.13;;;16.63;100.00
77662;BME280;69666;52.136;5.424;2023-07-31T05:13:15;100883.59;;;16.65;100.00
77662;BME280;69666;52.136;5.424;2023-07-31T05:15:44;100880.03;;;16.65;100.00
77662;BME280;69666;52.136;5.424;2023-07-31T05:18:14;100880.03;;;16.65;100.00
77662;BME280;69666;52.136;5.424;2023-07-31T05:20:43;100883.47;;;16.67;100.00
77662;BME280;69666;52.136;5.424;2023-07-31T05:23:12;100884.41;;;16.66;100.00
77662;BME280;69666;52.136;5.424;2023-07-31T05:25:42;100881.72;;;16.66;100.00
77662;BME280;69666;52.136;5.424;2023-07-31T05:28:12;100877.34;;;16.65;100.00
77662;BME280;69666;52.136;5.424;2023-07-31T05:30:42;100876.47;;;16.64;100.00
77662;BME280;69666;52.136;5.424;2023-07-31T05:33:11;100873.78;;;16.64;100.00
77662;BME280;69666;52.136;5.424;2023-07-31T05:35:41;100874.75;;;16.63;100.00
77662;BME280;69666;52.136;5.424;2023-07-31T05:38:12;100874.88;;;16.60;100.00
77662;BME280;69666;52.136;5.424;2023-07-31T05:40:43;100866.03;;;16.58;100.00
77662;BME280;69666;52.136;5.424;2023-07-31T05:43:12;100864.38;;;16.56;100.00
77662;BME280;69666;52.136;5.424;2023-07-31T05:45:44;100848.38;;;16.54;100.00
77662;BME280;69666;52.136;5.424;2023-07-31T05:48:13;100848.38;;;16.54;100.00
77662;BME280;69666;52.136;5.424;2023-07-31T05:50:43;100841.28;;;16.53;100.00
77662;BME280;69666;52.136;5.424;2023-07-31T05:53:13;100844.81;;;16.54;100.00
77662;BME280;69666;52.136;5.424;2023-07-31T05:55:42;100846.56;;;16.55;100.00
77662;BME280;69666;52.136;5.424;2023-07-31T05:58:12;100840.41;;;16.53;100.00
77662;BME280;69666;52.136;5.424;2023-07-31T06:00:41;100842.16;;;16.54;100.00
77662;BME280;69666;52.136;5.424;2023-07-31T06:03:10;100833.97;;;16.55;100.00
77662;BME280;69666;52.136;5.424;2023-07-31T06:05:40;100831.28;;;16.55;100.00
77662;BME280;69666;52.136;5.424;2023-07-31T06:08:09;100829.38;;;16.57;100.00
77662;BME280;69666;52.136;5.424;2023-07-31T06:10:39;100832.84;;;16.59;100.00
77662;BME280;69666;52.136;5.424;2023-07-31T06:13:08;100829.19;;;16.60;100.00
77662;BME280;69666;52.136;5.424;2023-07-31T06:15:37;100835.44;;;16.61;100.00
77662;BME280;69666;52.136;5.424;2023-07-31T06:18:07;100827.31;;;16.62;100.00
77662;BME280;69666;52.136;5.424;2023-07-31T06:20:36;100830.00;;;16.62;100.00
77662;BME280;69666;52.136;5.424;2023-07-31T06:23:08;100824.63;;;16.62;100.00
77662;BME280;69666;52.136;5.424;2023-07-31T06:25:37;100820.13;;;16.63;100.00
77662;BME280;69666;52.136;5.424;2023-07-31T06:28:06;100825.41;;;16.64;100.00
77662;BME280;69666;52.136;5.424;2023-07-31T06:30:36;100823.69;;;16.63;100.00
77662;BME280;69666;52.136;5.424;2023-07-31T06:33:05;100808.50;;;16.62;100.00
77662;BME280;69666;52.136;5.424;2023-07-31T06:35:35;100811.22;;;16.62;100.00
77662;BME280;69666;52.136;5.424;2023-07-31T06:38:04;100806.69;;;16.63;100.00
77662;BME280;69666;52.136;5.424;2023-07-31T06:40:34;100812.94;;;16.63;100.00
77662;BME280;69666;52.136;5.424;2023-07-31T06:43:03;100800.47;;;16.62;100.00
77662;BME280;69666;52.136;5.424;2023-07-31T06:45:36;100801.13;;;16.66;100.00
77662;BME280;69666;52.136;5.424;2023-07-31T06:48:06;100796.59;;;16.66;100.00
77662;BME280;69666;52.136;5.424;2023-07-31T06:50:35;100792.88;;;16.69;100.00
77662;BME280;69666;52.136;5.424;2023-07-31T06:53:05;100782.03;;;16.70;100.00
77662;BME280;69666;52.136;5.424;2023-07-31T06:55:34;100786.47;;;16.71;100.00
77662;BME280;69666;52.136;5.424;2023-07-31T06:58:03;100784.47;;;16.75;100.00
77662;BME280;69666;52.136;5.424;2023-07-31T07:00:33;100784.25;;;16.78;100.00
77662;BME280;69666;52.136;5.424;2023-07-31T07:03:02;100788.50;;;16.82;100.00
77662;BME280;69666;52.136;5.424;2023-07-31T07:05:31;100782.16;;;16.83;100.00
77662;BME280;69666;52.136;5.424;2023-07-31T07:08:01;100778.53;;;16.84;100.00
77662;BME280;69666;52.136;5.424;2023-07-31T07:10:30;100772.19;;;16.85;100.00
77662;BME280;69666;52.136;5.424;2023-07-31T07:12:59;100780.91;;;16.89;100.00
77662;BME280;69666;52.136;5.424;2023-07-31T07:15:28;100776.41;;;16.89;100.00
77662;BME280;69666;52.136;5.424;2023-07-31T07:17:58;100774.59;;;16.90;100.00
77662;BME280;69666;52.136;5.424;2023-07-31T07:20:27;100773.53;;;16.92;100.00
77662;BME280;69666;52.136;5.424;2023-07-31T07:22:56;100771.63;;;16.94;100.00
77662;BME280;69666;52.136;5.424;2023-07-31T07:25:25;100767.88;;;16.97;100.00
77662;BME280;69666;52.136;5.424;2023-07-31T07:27:56;100775.00;;;16.98;100.00
77662;BME280;69666;52.136;5.424;2023-07-31T07:30:25;100764.13;;;16.99;100.00
77662;BME280;69666;52.136;5.424;2023-07-31T07:32:54;100778.25;;;17.03;100.00
77662;BME280;69666;52.136;5.424;2023-07-31T07:35:23;100767.22;;;17.07;100.00
77662;BME280;69666;52.136;5.424;2023-07-31T07:37:53;100769.69;;;17.10;100.00
77662;BME280;69666;52.136;5.424;2023-07-31T07:40:22;100771.44;;;17.11;100.00
77662;BME280;69666;52.136;5.424;2023-07-31T07:42:51;100772.19;;;17.13;100.00
77662;BME280;69666;52.136;5.424;2023-07-31T07:45:21;100768.47;;;17.16;100.00
77662;BME280;69666;52.136;5.424;2023-07-31T07:47:50;100754.94;;;17.18;100.00
77662;BME280;69666;52.136;5.424;2023-07-31T07:50:19;100753.75;;;17.22;100.00
77662;BME280;69666;52.136;5.424;2023-07-31T07:52:48;100764.34;;;17.25;100.00
77662;BME280;69666;52.136;5.424;2023-07-31T07:55:18;100759.81;;;17.25;100.00
77662;BME280;69666;52.136;5.424;2023-07-31T07:57:47;100754.34;;;17.27;100.00
77662;BME280;69666;52.136;5.424;2023-07-31T08:00:18;100750.47;;;17.31;100.00
77662;BME280;69666;52.136;5.424;2023-07-31T08:02:47;100769.22;;;17.32;100.00
77662;BME280;69666;52.136;5.424;2023-07-31T08:05:16;100750.09;;;17.37;100.00
77662;BME280;69666;52.136;5.424;2023-07-31T08:07:46;100749.06;;;17.39;100.00
77662;BME280;69666;52.136;5.424;2023-07-31T08:10:15;100751.53;;;17.42;100.00
77662;BME280;69666;52.136;5.424;2023-07-31T08:12:44;100742.72;;;17.40;100.00
77662;BME280;69666;52.136;5.424;2023-07-31T08:15:13;100740.66;;;17.44;100.00
77662;BME280;69666;52.136;5.424;2023-07-31T08:17:42;100737.88;;;17.45;100.00
77662;BME280;69666;52.136;5.424;2023-07-31T08:20:12;100737.59;;;17.50;100.00
77662;BME280;69666;52.136;5.424;2023-07-31T08:22:42;100736.66;;;17.51;100.00
77662;BME280;69666;52.136;5.424;2023-07-31T08:25:11;100738.25;;;17.53;100.00
77662;BME280;69666;52.136;5.424;2023-07-31T08:27:44;100724.69;;;17.55;100.00
77662;BME280;69666;52.136;5.424;2023-07-31T08:30:13;100725.47;;;17.57;100.00
77662;BME280;69666;52.136;5.424;2023-07-31T08:32:42;100729.03;;;17.58;100.00
77662;BME280;69666;52.136;5.424;2023-07-31T08:35:12;100727.00;;;17.61;100.00
77662;BME280;69666;52.136;5.424;2023-07-31T08:37:41;100726.81;;;17.64;100.00
77662;BME280;69666;52.136;5.424;2023-07-31T08:40:10;100715.00;;;17.67;100.00
77662;BME280;69666;52.136;5.424;2023-07-31T08:42:49;100725.47;;;17.71;100.00
77662;BME280;69666;52.136;5.424;2023-07-31T08:45:19;100726.13;;;17.75;100.00
77662;BME280;69666;52.136;5.424;2023-07-31T08:47:51;100720.25;;;17.82;100.00
77662;BME280;69666;52.136;5.424;2023-07-31T08:50:21;100724.09;;;17.78;100.00
77662;BME280;69666;52.136;5.424;2023-07-31T08:52:52;100732.75;;;17.83;100.00
77662;BME280;69666;52.136;5.424;2023-07-31T08:55:25;100714.34;;;17.90;100.00
77662;BME280;69666;52.136;5.424;2023-07-31T08:57:56;100715.88;;;17.94;100.00
77662;BME280;69666;52.136;5.424;2023-07-31T09:00:26;100726.53;;;17.96;100.00
77662;BME280;69666;52.136;5.424;2023-07-31T09:03:01;100726.31;;;17.99;100.00
77662;BME280;69666;52.136;5.424;2023-07-31T09:05:31;100715.25;;;18.03;100.00
77662;BME280;69666;52.136;5.424;2023-07-31T09:08:02;100718.59;;;18.07;100.00
77662;BME280;69666;52.136;5.424;2023-07-31T09:10:33;100727.25;;;18.12;100.00
77662;BME280;69666;52.136;5.424;2023-07-31T09:13:02;100725.13;;;18.17;100.00
77662;BME280;69666;52.136;5.424;2023-07-31T09:15:34;100725.66;;;18.22;100.00
77662;BME280;69666;52.136;5.424;2023-07-31T09:18:06;100722.00;;;18.23;100.00
77662;BME280;69666;52.136;5.424;2023-07-31T09:20:36;100716.59;;;18.23;100.00
77662;BME280;69666;52.136;5.424;2023-07-31T09:25:43;100712.38;;;18.19;100.00
77662;BME280;69666;52.136;5.424;2023-07-31T09:28:13;100707.22;;;18.16;100.00
77662;BME280;69666;52.136;5.424;2023-07-31T09:30:48;100710.66;;;18.18;100.00
77662;BME280;69666;52.136;5.424;2023-07-31T09:33:19;100708.94;;;18.17;100.00
77662;BME280;69666;52.136;5.424;2023-07-31T09:35:48;100703.56;;;18.17;100.00
77662;BME280;69666;52.136;5.424;2023-07-31T09:38:17;100707.00;;;18.19;100.00
77662;BME280;69666;52.136;5.424;2023-07-31T09:40:48;100716.69;;;18.21;100.00
77662;BME280;69666;52.136;5.424;2023-07-31T09:43:20;100712.09;;;18.23;100.00
77662;BME280;69666;52.136;5.424;2023-07-31T09:45:55;100711.03;;;18.26;100.00
77662;BME280;69666;52.136;5.424;2023-07-31T09:48:25;100710.38;;;18.35;100.00
77662;BME280;69666;52.136;5.424;2023-07-31T09:50:55;100704.03;;;18.36;100.00
77662;BME280;69666;52.136;5.424;2023-07-31T09:53:30;100696.47;;;18.41;100.00
77662;BME280;69666;52.136;5.424;2023-07-31T09:55:59;100700.50;;;18.48;100.00
77662;BME280;69666;52.136;5.424;2023-07-31T09:58:34;100708.25;;;18.53;100.00
77662;BME280;69666;52.136;5.424;2023-07-31T10:01:04;100706.41;;;18.53;100.00
77662;BME280;69666;52.136;5.424;2023-07-31T10:03:34;100704.38;;;18.57;100.00
77662;BME280;69666;52.136;5.424;2023-07-31T10:06:05;100697.25;;;18.56;100.00
77662;BME280;69666;52.136;5.424;2023-07-31T10:08:36;100704.94;;;18.62;100.00
77662;BME280;69666;52.136;5.424;2023-07-31T10:11:09;100696.75;;;18.64;100.00
77662;BME280;69666;52.136;5.424;2023-07-31T10:13:40;100691.03;;;18.68;100.00
77662;BME280;69666;52.136;5.424;2023-07-31T10:16:10;100704.41;;;18.70;100.00
77662;BME280;69666;52.136;5.424;2023-07-31T10:18:42;100707.97;;;18.70;100.00
77662;BME280;69666;52.136;5.424;2023-07-31T10:21:11;100702.59;;;18.70;100.00
77662;BME280;69666;52.136;5.424;2023-07-31T10:23:41;100700.75;;;18.71;100.00
77662;BME280;69666;52.136;5.424;2023-07-31T10:26:13;100706.16;;;18.71;100.00
77662;BME280;69666;52.136;5.424;2023-07-31T10:28:46;100696.34;;;18.70;100.00
77662;BME280;69666;52.136;5.424;2023-07-31T10:31:16;100708.84;;;18.71;100.00
77662;BME280;69666;52.136;5.424;2023-07-31T10:33:48;100703.47;;;18.71;100.00
77662;BME280;69666;52.136;5.424;2023-07-31T10:36:19;100703.31;;;18.72;100.00
77662;BME280;69666;52.136;5.424;2023-07-31T10:38:49;100698.16;;;18.69;100.00
77662;BME280;69666;52.136;5.424;2023-07-31T10:41:18;100704.41;;;18.70;100.00
77662;BME280;69666;52.136;5.424;2023-07-31T10:43:48;100700.97;;;18.68;100.00
77662;BME280;69666;52.136;5.424;2023-07-31T10:46:17;100699.03;;;18.70;100.00
77662;BME280;69666;52.136;5.424;2023-07-31T10:48:58;100697.06;;;18.72;100.00
77662;BME280;69666;52.136;5.424;2023-07-31T10:51:35;100699.66;;;18.73;100.00
77662;BME280;69666;52.136;5.424;2023-07-31T10:54:12;100700.31;;;18.77;100.00
77662;BME280;69666;52.136;5.424;2023-07-31T10:56:46;100704.84;;;18.76;100.00
77662;BME280;69666;52.136;5.424;2023-07-31T10:59:15;100702.81;;;18.80;100.00
77662;BME280;69666;52.136;5.424;2023-07-31T11:01:52;100695.47;;;18.82;100.00
77662;BME280;69666;52.136;5.424;2023-07-31T11:04:26;100700.72;;;18.83;100.00
77662;BME280;69666;52.136;5.424;2023-07-31T11:06:59;100689.22;;;18.81;100.00
77662;BME280;69666;52.136;5.424;2023-07-31T11:09:31;100699.88;;;18.83;100.00
77662;BME280;69666;52.136;5.424;2023-07-31T11:12:00;100695.03;;;18.88;100.00
77662;BME280;69666;52.136;5.424;2023-07-31T11:14:29;100703.00;;;18.89;100.00
77662;BME280;69666;52.136;5.424;2023-07-31T11:16:59;100700.31;;;18.89;100.00
77662;BME280;69666;52.136;5.424;2023-07-31T11:19:28;100689.41;;;18.91;100.00
77662;BME280;69666;52.136;5.424;2023-07-31T11:21:57;100700.09;;;18.92;100.00
77662;BME280;69666;52.136;5.424;2023-07-31T11:24:27;100695.53;;;18.93;100.00
77662;BME280;69666;52.136;5.424;2023-07-31T11:26:57;100687.34;;;18.94;100.00
77662;BME280;69666;52.136;5.424;2023-07-31T11:29:28;100700.84;;;18.94;100.00
77662;BME280;69666;52.136;5.424;2023-07-31T11:31:57;100692.75;;;18.94;100.00
77662;BME280;69666;52.136;5.424;2023-07-31T11:34:26;100689.19;;;18.94;100.00
77662;BME280;69666;52.136;5.424;2023-07-31T11:36:56;100689.94;;;18.96;100.00
77662;BME280;69666;52.136;5.424;2023-07-31T11:39:25;100695.44;;;18.94;100.00
77662;BME280;69666;52.136;5.424;2023-07-31T11:41:59;100695.03;;;18.88;100.00
77662;BME280;69666;52.136;5.424;2023-07-31T11:44:38;100688.88;;;18.86;100.00
77662;BME280;69666;52.136;5.424;2023-07-31T11:47:08;100690.50;;;18.88;100.00
77662;BME280;69666;52.136;5.424;2023-07-31T11:49:37;100688.66;;;18.89;100.00
77662;BME280;69666;52.136;5.424;2023-07-31T11:52:07;100683.38;;;18.87;100.00
77662;BME280;69666;52.136;5.424;2023-07-31T11:54:36;100685.09;;;18.88;100.00
77662;BME280;69666;52.136;5.424;2023-07-31T11:57:07;100687.69;;;18.90;100.00
77662;BME280;69666;52.136;5.424;2023-07-31T11:59:38;100683.28;;;18.89;100.00
77662;BME280;69666;52.136;5.424;2023-07-31T12:02:08;100678.19;;;18.84;100.00
77662;BME280;69666;52.136;5.424;2023-07-31T12:04:38;100682.97;;;18.81;100.00
77662;BME280;69666;52.136;5.424;2023-07-31T12:07:07;100676.59;;;18.82;100.00
77662;BME280;69666;52.136;5.424;2023-07-31T12:09:37;100689.31;;;18.80;100.00
77662;BME280;69666;52.136;5.424;2023-07-31T12:12:09;100688.56;;;18.78;100.00
77662;BME280;69666;52.136;5.424;2023-07-31T12:14:42;100689.31;;;18.80;100.00
77662;BME280;69666;52.136;5.424;2023-07-31T12:17:11;100690.09;;;18.82;100.00
77662;BME280;69666;52.136;5.424;2023-07-31T12:19:40;100689.84;;;18.85;100.00
77662;BME280;69666;52.136;5.424;2023-07-31T12:22:16;100688.88;;;18.86;100.00
77662;BME280;69666;52.136;5.424;2023-07-31T12:24:45;100686.19;;;18.86;100.00
77662;BME280;69666;52.136;5.424;2023-07-31T12:27:15;100681.53;;;18.88;100.00
77662;BME280;69666;52.136;5.424;2023-07-31T12:29:46;100681.22;;;18.92;100.00
77662;BME280;69666;52.136;5.424;2023-07-31T12:32:23;100676.56;;;18.94;100.00
77662;BME280;69666;52.136;5.424;2023-07-31T12:35:00;100656.72;;;18.95;100.00
77662;BME280;69666;52.136;5.424;2023-07-31T12:37:29;100654.88;;;18.96;100.00
77662;BME280;69666;52.136;5.424;2023-07-31T12:40:00;100650.25;;;18.98;100.00
77662;BME280;69666;52.136;5.424;2023-07-31T12:42:36;100657.47;;;18.98;100.00
77662;BME280;69666;52.136;5.424;2023-07-31T12:45:06;100646.69;;;18.98;100.00
77662;BME280;69666;52.136;5.424;2023-07-31T12:47:35;100657.38;;;18.99;100.00
77662;BME280;69666;52.136;5.424;2023-07-31T12:50:04;100652.63;;;19.03;100.00
77662;BME280;69666;52.136;5.424;2023-07-31T12:52:34;100653.34;;;19.05;100.00
77662;BME280;69666;52.136;5.424;2023-07-31T12:55:03;100659.59;;;19.05;100.00
77662;BME280;69666;52.136;5.424;2023-07-31T12:57:33;100646.97;;;19.06;100.00
77662;BME280;69666;52.136;5.424;2023-07-31T13:00:05;100644.28;;;19.06;100.00
77662;BME280;69666;52.136;5.424;2023-07-31T13:02:34;100635.13;;;19.08;100.00
77662;BME280;69666;52.136;5.424;2023-07-31T13:05:04;100637.25;;;19.16;100.00
77662;BME280;69666;52.136;5.424;2023-07-31T13:07:33;100639.84;;;19.17;100.00